Time;durP1;ratioP1;P1;durP2;ratioP2;P2;SDS_P1;SDS_P2;PMS_P1;PMS_P2;Temp;Humidity;BMP_temperature;BMP_pressure;BME280_temperature;BME280_humidity;BME280_pressure;Samples;Min_cycle;Max_cycle;Signal;HPM_P1;HPM_P2
2022/10/11 00:00:45;;;;;;;6.78;2.15;;;9.10;99.90;;;;;;4214120;28;20486;-86
2022/10/11 00:02:46;;;;;;;5.95;1.17;;;9.00;99.90;;;;;;4196565;28;20123;-86
2022/10/11 00:04:49;;;;;;;9.63;1.23;;;9.00;99.90;;;;;;4196161;28;20045;-86
2022/10/11 00:06:50;;;;;;;17.98;2.63;;;8.90;99.90;;;;;;4212663;28;20116;-86
2022/10/11 00:08:51;;;;;;;8.05;1.52;;;8.90;99.90;;;;;;4213128;28;20052;-85
2022/10/11 00:10:59;;;;;;;9.68;1.45;;;8.90;99.90;;;;;;4214497;28;20083;-87
2022/10/11 00:13:00;;;;;;;8.23;0.97;;;8.80;99.90;;;;;;4213851;28;20056;-86
2022/10/11 00:15:02;;;;;;;5.90;1.23;;;8.80;99.90;;;;;;4213417;28;20056;-86
2022/10/11 00:17:06;;;;;;;7.78;1.55;;;8.70;99.90;;;;;;4213066;28;20127;-86
2022/10/11 00:19:07;;;;;;;5.78;0.95;;;7.60;99.90;;;;;;4213131;28;20479;-86
2022/10/11 00:21:11;;;;;;;11.13;1.48;;;8.80;99.90;;;;;;4213631;28;20036;-86
2022/10/11 00:23:13;;;;;;;8.10;1.30;;;9.00;99.90;;;;;;4195495;28;20090;-85
2022/10/11 00:25:15;;;;;;;14.50;2.33;;;8.70;99.90;;;;;;4212486;28;20075;-86
2022/10/11 00:27:16;;;;;;;5.97;1.05;;;8.70;99.90;;;;;;4213148;28;20117;-86
2022/10/11 00:29:17;;;;;;;13.93;2.33;;;8.70;99.90;;;;;;4214983;28;20105;-86
2022/10/11 00:31:19;;;;;;;8.13;1.33;;;8.60;99.90;;;;;;4216376;28;20427;-86
2022/10/11 00:33:21;;;;;;;8.60;1.50;;;8.80;99.90;;;;;;4214375;28;20040;-86
2022/10/11 00:35:21;;;;;;;13.50;1.48;;;8.60;99.90;;;;;;4228371;28;20055;-86
2022/10/11 00:37:22;;;;;;;12.10;2.90;;;8.70;99.90;;;;;;4232765;28;20036;-86
2022/10/11 00:39:23;;;;;;;5.82;0.90;;;8.50;99.90;;;;;;4231059;28;20032;-85
2022/10/11 00:41:23;;;;;;;9.98;1.15;;;8.50;99.90;;;;;;4204279;28;20052;-85
2022/10/11 00:43:29;;;;;;;9.88;2.03;;;8.40;99.90;;;;;;4233588;28;20043;-85
2022/10/11 00:45:30;;;;;;;14.68;1.42;;;8.50;99.90;;;;;;4231650;28;20047;-85
2022/10/11 00:47:30;;;;;;;9.73;1.83;;;8.40;99.90;;;;;;4233644;28;20062;-85
2022/10/11 00:49:35;;;;;;;11.45;1.30;;;7.90;99.90;;;;;;4232631;28;20059;-85
2022/10/11 00:51:45;;;;;;;9.43;1.75;;;8.40;99.90;;;;;;4215471;28;20052;-85
2022/10/11 00:53:49;;;;;;;8.32;1.17;;;8.30;99.90;;;;;;4232153;28;20052;-85
2022/10/11 00:56:02;;;;;;;9.57;1.00;;;8.30;99.90;;;;;;4233255;28;20047;-85
2022/10/11 00:58:03;;;;;;;14.65;1.70;;;8.40;99.90;;;;;;4224204;28;20040;-85
2022/10/11 01:00:07;;;;;;;6.97;1.40;;;8.30;99.90;;;;;;4214809;28;20059;-85
2022/10/11 01:02:09;;;;;;;10.38;1.52;;;8.30;99.90;;;;;;4198457;28;20055;-85
2022/10/11 01:04:09;;;;;;;6.43;1.25;;;8.30;99.90;;;;;;4216600;28;20444;-85
2022/10/11 01:06:11;;;;;;;21.08;1.65;;;8.30;99.90;;;;;;4216494;28;20044;-85
2022/10/11 01:08:12;;;;;;;10.88;1.25;;;8.30;99.90;;;;;;4215150;28;20044;-85
2022/10/11 01:10:13;;;;;;;8.70;1.30;;;8.30;99.90;;;;;;4216119;28;20087;-86
2022/10/11 01:12:21;;;;;;;5.70;1.10;;;8.30;99.90;;;;;;4214155;28;20050;-85
2022/10/11 01:14:34;;;;;;;9.43;0.90;;;8.30;99.90;;;;;;4198798;28;20051;-86
2022/10/11 01:16:41;;;;;;;10.60;1.02;;;8.30;99.90;;;;;;4198371;28;20688;-86
2022/10/11 01:19:01;;;;;;;7.07;1.58;;;8.40;99.90;;;;;;4199986;28;20037;-86
2022/10/11 01:21:41;;;;;;;8.23;1.42;;;8.30;99.90;;;;;;4198993;28;20049;-86
2022/10/11 01:24:12;;;;;;;7.85;1.15;;;8.30;99.90;;;;;;4205568;28;20498;-86
2022/10/11 01:26:40;;;;;;;7.18;1.15;;;8.40;99.90;;;;;;4198172;28;20085;-86
2022/10/11 01:29:05;;;;;;;10.55;1.70;;;8.40;99.90;;;;;;4199950;28;20052;-86
2022/10/11 01:31:25;;;;;;;12.68;1.30;;;8.40;99.90;;;;;;4215293;28;20077;-86
2022/10/11 01:33:57;;;;;;;10.90;2.20;;;8.40;99.90;;;;;;4198426;28;20106;-86
2022/10/11 01:36:09;;;;;;;13.43;1.73;;;8.80;99.90;;;;;;4197747;28;20109;-87
2022/10/11 01:38:14;;;;;;;7.85;2.05;;;8.40;99.90;;;;;;4204059;28;20516;-86
2022/10/11 01:40:28;;;;;;;10.50;1.27;;;8.40;99.90;;;;;;4203188;28;20482;-86
2022/10/11 01:42:29;;;;;;;7.95;1.30;;;8.50;99.90;;;;;;4199348;28;20131;-86
2022/10/11 01:44:33;;;;;;;10.00;2.55;;;8.80;99.90;;;;;;4211048;28;20036;-87
2022/10/11 01:46:35;;;;;;;10.88;1.40;;;8.50;99.90;;;;;;4216344;28;20444;-86
2022/10/11 01:48:50;;;;;;;14.77;1.60;;;8.60;99.90;;;;;;4197822;28;20098;-86
2022/10/11 01:50:57;;;;;;;12.57;1.63;;;8.40;99.90;;;;;;4215921;28;20059;-86
2022/10/11 01:53:10;;;;;;;9.25;1.13;;;8.50;99.90;;;;;;4214695;28;20080;-86
2022/10/11 01:55:42;;;;;;;7.90;1.40;;;8.50;99.90;;;;;;4214788;28;20047;-86
2022/10/11 01:58:07;;;;;;;12.63;1.30;;;8.50;99.90;;;;;;4193572;28;20181;-86
2022/10/11 02:00:13;;;;;;;9.55;1.42;;;8.50;99.90;;;;;;4197792;28;20131;-86
2022/10/11 02:02:36;;;;;;;7.32;1.40;;;8.50;99.90;;;;;;4198018;28;20048;-86
2022/10/11 02:05:02;;;;;;;4.95;0.95;;;8.50;99.90;;;;;;4197954;28;20406;-86
2022/10/11 02:07:11;;;;;;;6.72;1.30;;;8.50;99.90;;;;;;4197736;28;20055;-86
2022/10/11 02:09:38;;;;;;;9.82;1.80;;;8.50;99.90;;;;;;4197863;28;20636;-86
2022/10/11 02:11:39;;;;;;;11.73;1.90;;;8.40;99.90;;;;;;4176642;28;20136;-86
2022/10/11 02:13:46;;;;;;;27.85;3.22;;;8.40;99.90;;;;;;4210266;28;20059;-87
2022/10/11 02:15:49;;;;;;;16.80;1.40;;;8.40;99.90;;;;;;4214262;28;20054;-86
2022/10/11 02:17:56;;;;;;;15.57;1.23;;;8.40;99.90;;;;;;4197329;28;20452;-86
2022/10/11 02:20:00;;;;;;;10.70;1.48;;;8.40;99.90;;;;;;4215074;28;20508;-86
2022/10/11 02:22:06;;;;;;;12.13;1.52;;;8.40;99.90;;;;;;4213946;28;20052;-86
2022/10/11 02:24:27;;;;;;;7.70;1.40;;;8.40;99.90;;;;;;4214432;28;20078;-86
2022/10/11 02:26:31;;;;;;;8.27;1.27;;;8.40;99.90;;;;;;4214552;28;20093;-86
2022/10/11 02:28:37;;;;;;;7.55;1.30;;;8.40;99.90;;;;;;4213357;28;20087;-86
2022/10/11 02:30:40;;;;;;;10.77;1.65;;;8.40;99.90;;;;;;4215558;28;20047;-86
2022/10/11 02:32:43;;;;;;;5.70;1.08;;;8.90;99.90;;;;;;4214134;28;20062;-86
2022/10/11 02:34:58;;;;;;;8.07;1.15;;;8.70;99.90;;;;;;4225669;28;20044;-86
2022/10/11 02:37:03;;;;;;;15.05;1.55;;;8.40;99.90;;;;;;4214385;28;20044;-86
2022/10/11 02:39:15;;;;;;;13.45;2.60;;;8.30;99.90;;;;;;4232159;28;20044;-85
2022/10/11 02:41:24;;;;;;;13.50;1.38;;;8.30;99.90;;;;;;4230961;28;20055;-86
2022/10/11 02:43:35;;;;;;;10.70;1.35;;;8.80;99.90;;;;;;4230955;28;20046;-86
2022/10/11 02:46:02;;;;;;;12.02;1.50;;;8.80;99.90;;;;;;4232180;28;20089;-86
2022/10/11 02:48:05;;;;;;;11.00;1.10;;;8.30;99.90;;;;;;4229549;28;20152;-86
2022/10/11 02:50:06;;;;;;;12.20;1.85;;;8.30;99.90;;;;;;4228948;28;20043;-86
2022/10/11 02:52:10;;;;;;;14.40;1.52;;;8.30;99.90;;;;;;4213611;28;20062;-86
2022/10/11 02:54:10;;;;;;;6.45;1.15;;;8.70;99.90;;;;;;4231088;28;20052;-85
2022/10/11 02:56:11;;;;;;;11.40;1.33;;;8.30;99.90;;;;;;4229669;28;20493;-87
2022/10/11 02:58:12;;;;;;;18.77;2.13;;;8.30;99.90;;;;;;4229794;28;20516;-86
2022/10/11 03:00:13;;;;;;;8.18;1.50;;;8.30;99.90;;;;;;4229657;28;20093;-86
2022/10/11 03:02:14;;;;;;;10.48;1.10;;;8.30;99.90;;;;;;4212838;28;20490;-86
2022/10/11 03:04:14;;;;;;;9.80;1.45;;;8.30;99.90;;;;;;4212829;28;20131;-86
2022/10/11 03:06:16;;;;;;;8.75;0.95;;;8.30;99.90;;;;;;4219406;28;20052;-86
2022/10/11 03:08:17;;;;;;;6.43;0.77;;;8.30;99.90;;;;;;4214947;28;20405;-86
2022/10/11 03:10:18;;;;;;;9.55;1.80;;;8.30;99.90;;;;;;4213300;28;20047;-86
2022/10/11 03:12:18;;;;;;;12.80;1.27;;;8.20;99.90;;;;;;4213612;28;20084;-86
2022/10/11 03:14:20;;;;;;;6.03;1.33;;;8.20;99.90;;;;;;4213419;28;20051;-86
2022/10/11 03:16:21;;;;;;;10.65;2.53;;;8.20;99.90;;;;;;4215171;28;20554;-86
2022/10/11 03:18:22;;;;;;;5.90;1.15;;;8.10;99.90;;;;;;4214127;28;20044;-86
2022/10/11 03:20:24;;;;;;;8.13;1.15;;;8.20;99.90;;;;;;4215230;28;20039;-86
2022/10/11 03:22:26;;;;;;;5.88;1.40;;;8.60;99.90;;;;;;4226714;28;20051;-86
2022/10/11 03:24:26;;;;;;;10.98;1.30;;;8.20;99.90;;;;;;4230620;28;20409;-86
2022/10/11 03:26:27;;;;;;;14.68;2.35;;;8.10;99.90;;;;;;4232128;28;20044;-86
2022/10/11 03:28:28;;;;;;;6.68;1.60;;;8.10;99.90;;;;;;4214327;28;20052;-86
2022/10/11 03:30:28;;;;;;;12.63;1.45;;;8.10;99.90;;;;;;4232053;28;20050;-86
2022/10/11 03:32:29;;;;;;;8.35;1.20;;;8.00;99.90;;;;;;4230879;28;20087;-85
2022/10/11 03:34:30;;;;;;;10.25;1.55;;;8.00;99.90;;;;;;4231966;28;20048;-85
2022/10/11 03:36:31;;;;;;;15.98;2.67;;;8.00;99.90;;;;;;4230657;28;20455;-85
2022/10/11 03:38:32;;;;;;;11.40;2.33;;;8.00;99.90;;;;;;4231498;28;20048;-86
2022/10/11 03:40:33;;;;;;;8.63;1.67;;;8.00;99.90;;;;;;4229999;28;20043;-85
2022/10/11 03:42:35;;;;;;;12.50;1.77;;;7.90;99.90;;;;;;4231447;28;20404;-85
2022/10/11 03:44:37;;;;;;;11.50;1.92;;;8.00;99.90;;;;;;4230978;28;20513;-85
2022/10/11 03:46:41;;;;;;;6.80;1.30;;;7.90;99.90;;;;;;4230156;28;20058;-86
2022/10/11 03:48:42;;;;;;;13.50;2.25;;;7.20;99.90;;;;;;4229853;28;20463;-86
2022/10/11 03:50:42;;;;;;;11.02;1.75;;;7.90;99.90;;;;;;4231520;28;20118;-86
2022/10/11 03:52:43;;;;;;;12.45;2.33;;;7.90;99.90;;;;;;4231267;28;20400;-86
2022/10/11 03:54:45;;;;;;;9.18;2.35;;;7.80;99.90;;;;;;4231685;28;20131;-85
2022/10/11 03:56:45;;;;;;;11.57;1.75;;;7.90;99.90;;;;;;4231590;28;20051;-86
2022/10/11 03:58:46;;;;;;;6.50;1.45;;;7.80;99.90;;;;;;4220656;28;20043;-85
2022/10/11 04:00:48;;;;;;;9.25;1.20;;;7.80;99.90;;;;;;4196877;28;20130;-86
2022/10/11 04:02:49;;;;;;;9.95;1.63;;;8.20;99.90;;;;;;4215514;28;20481;-86
2022/10/11 04:04:49;;;;;;;17.33;2.17;;;7.70;99.90;;;;;;4198958;28;20052;-86
2022/10/11 04:06:50;;;;;;;5.15;1.50;;;7.70;99.90;;;;;;4215678;28;20055;-86
2022/10/11 04:08:51;;;;;;;12.13;2.10;;;7.70;99.90;;;;;;4217797;28;20048;-85
2022/10/11 04:10:51;;;;;;;16.65;2.50;;;7.60;99.90;;;;;;4217409;28;20036;-86
2022/10/11 04:12:52;;;;;;;15.07;2.67;;;7.70;99.90;;;;;;4193305;28;20092;-88
2022/10/11 04:14:53;;;;;;;17.33;2.28;;;7.60;99.90;;;;;;4200582;28;20052;-86
2022/10/11 04:16:54;;;;;;;13.30;2.22;;;7.60;99.90;;;;;;4212553;28;20047;-85
2022/10/11 04:18:54;;;;;;;12.05;2.20;;;7.60;99.90;;;;;;4217352;28;20044;-86
2022/10/11 04:20:55;;;;;;;12.50;2.08;;;7.60;99.90;;;;;;4215974;28;20039;-85
2022/10/11 04:22:56;;;;;;;9.55;2.22;;;7.50;99.90;;;;;;4215872;28;20048;-85
2022/10/11 04:24:57;;;;;;;11.23;1.52;;;7.50;99.90;;;;;;4215954;28;20428;-86
2022/10/11 04:26:58;;;;;;;15.07;3.28;;;7.50;99.90;;;;;;4217402;28;20511;-86
2022/10/11 04:28:58;;;;;;;15.20;2.15;;;7.50;99.90;;;;;;4199254;28;20051;-86
2022/10/11 04:31:00;;;;;;;7.90;1.77;;;7.50;99.90;;;;;;4216483;28;20040;-86
2022/10/11 04:33:01;;;;;;;12.10;1.88;;;7.50;99.90;;;;;;4217123;28;20048;-85
2022/10/11 04:35:02;;;;;;;11.43;1.92;;;7.40;99.90;;;;;;4215638;28;20048;-85
2022/10/11 04:37:04;;;;;;;10.23;1.70;;;7.40;99.90;;;;;;4217809;28;20043;-86
2022/10/11 04:39:05;;;;;;;13.43;2.15;;;7.40;99.90;;;;;;4217354;28;20082;-85
2022/10/11 04:41:11;;;;;;;9.40;1.45;;;7.30;99.90;;;;;;4216001;28;20105;-85
2022/10/11 04:43:14;;;;;;;10.75;1.58;;;7.40;99.90;;;;;;4216197;28;20153;-85
2022/10/11 04:45:15;;;;;;;9.32;2.13;;;7.60;99.90;;;;;;4217034;28;20476;-85
2022/10/11 04:47:16;;;;;;;12.00;2.63;;;7.40;99.90;;;;;;4215674;28;20050;-85
2022/10/11 04:49:17;;;;;;;7.63;1.50;;;7.40;99.90;;;;;;4217002;28;20043;-85
2022/10/11 04:51:18;;;;;;;11.48;1.50;;;7.40;99.90;;;;;;4216254;28;20060;-85
2022/10/11 04:53:18;;;;;;;13.52;2.20;;;7.40;99.90;;;;;;4216698;28;20089;-84
2022/10/11 04:55:19;;;;;;;11.63;1.38;;;7.30;99.90;;;;;;4199410;28;20135;-85
2022/10/11 04:57:20;;;;;;;8.88;1.73;;;6.40;99.90;;;;;;4215797;28;20052;-85
2022/10/11 04:59:21;;;;;;;12.27;2.20;;;7.40;99.90;;;;;;4201707;28;20409;-85
2022/10/11 05:01:21;;;;;;;9.30;1.60;;;7.40;99.90;;;;;;4204467;28;20044;-85
2022/10/11 05:03:23;;;;;;;10.15;1.55;;;7.30;99.90;;;;;;4199664;28;20123;-85
2022/10/11 05:05:24;;;;;;;21.92;3.35;;;7.40;99.90;;;;;;4200194;28;20048;-85
2022/10/11 05:07:26;;;;;;;7.55;1.15;;;7.40;99.90;;;;;;4199186;28;20045;-85
2022/10/11 05:09:27;;;;;;;6.28;1.10;;;7.30;99.90;;;;;;4183147;28;20045;-85
2022/10/11 05:11:28;;;;;;;12.73;2.67;;;7.40;99.90;;;;;;4199247;28;20048;-85
2022/10/11 05:13:29;;;;;;;9.30;1.70;;;7.40;99.90;;;;;;4210607;28;20131;-85
2022/10/11 05:15:30;;;;;;;8.95;1.17;;;7.40;99.90;;;;;;4216992;28;20044;-85
2022/10/11 05:17:31;;;;;;;9.45;2.20;;;7.40;99.90;;;;;;4215637;28;20050;-85
2022/10/11 05:19:32;;;;;;;6.75;1.58;;;7.40;99.90;;;;;;4215948;28;20481;-85
2022/10/11 05:21:32;;;;;;;14.32;2.28;;;7.60;99.90;;;;;;4216253;28;20048;-85
2022/10/11 05:23:35;;;;;;;10.18;1.27;;;7.40;99.90;;;;;;4216379;28;20040;-85
2022/10/11 05:25:36;;;;;;;11.38;1.70;;;7.40;99.90;;;;;;4214955;28;20044;-85
2022/10/11 05:27:36;;;;;;;7.97;1.23;;;6.20;99.90;;;;;;4214445;28;20050;-85
2022/10/11 05:29:54;;;;;;;10.00;1.25;;;8.00;99.90;;;;;;4214685;28;20470;-85
2022/10/11 05:31:54;;;;;;;9.27;1.55;;;7.50;99.90;;;;;;4216490;28;20068;-85
2022/10/11 05:34:00;;;;;;;5.85;1.27;;;7.50;99.90;;;;;;4199187;28;20044;-85
2022/10/11 05:36:05;;;;;;;11.60;2.45;;;7.50;99.90;;;;;;4224406;28;20044;-86
2022/10/11 05:38:06;;;;;;;9.23;1.58;;;7.60;99.90;;;;;;4223015;28;20494;-86
2022/10/11 05:40:11;;;;;;;7.85;1.70;;;7.50;99.90;;;;;;4222331;28;20127;-87
2022/10/11 05:42:18;;;;;;;9.57;2.15;;;7.60;99.90;;;;;;4234934;28;20039;-87
2022/10/11 05:44:31;;;;;;;11.10;1.88;;;8.90;99.90;;;;;;4241079;28;20048;-87
2022/10/11 05:46:32;;;;;;;;;;;7.60;99.90;;;;;;4224725;28;20040;-87
2022/10/11 05:48:33;;;;;;;15.07;1.50;;;7.60;99.90;;;;;;4217649;28;19920;-87
2022/10/11 05:50:36;;;;;;;13.95;1.88;;;8.00;99.90;;;;;;4217250;28;20417;-87
2022/10/11 05:52:37;;;;;;;11.45;1.50;;;7.60;99.90;;;;;;4221609;28;20055;-86
2022/10/11 05:54:38;;;;;;;20.50;2.70;;;7.60;99.90;;;;;;4236604;28;20047;-87
2022/10/11 05:56:38;;;;;;;16.23;1.80;;;7.60;99.90;;;;;;4236609;28;20035;-87
2022/10/11 05:58:39;;;;;;;8.15;2.33;;;7.60;99.90;;;;;;4234386;28;20054;-87
2022/10/11 06:00:41;;;;;;;17.90;2.60;;;8.30;99.90;;;;;;4219148;28;20517;-87
2022/10/11 06:02:41;;;;;;;18.63;1.70;;;7.70;99.90;;;;;;4202949;28;20049;-87
2022/10/11 06:04:43;;;;;;;12.43;1.48;;;8.10;99.90;;;;;;4222007;28;20099;-87
2022/10/11 06:06:44;;;;;;;11.73;1.50;;;7.70;99.90;;;;;;4204060;28;20083;-87
2022/10/11 06:08:46;;;;;;;16.52;2.63;;;8.10;99.90;;;;;;4221435;28;20405;-86
2022/10/11 06:10:48;;;;;;;12.82;2.00;;;7.70;99.90;;;;;;4220152;28;20084;-86
2022/10/11 06:12:48;;;;;;;6.35;1.25;;;7.70;99.90;;;;;;4219319;28;20066;-87
2022/10/11 06:14:49;;;;;;;8.88;2.17;;;7.70;99.90;;;;;;4222159;28;20044;-87
2022/10/11 06:16:51;;;;;;;7.55;1.52;;;8.00;99.90;;;;;;4244935;27;20058;-87
2022/10/11 06:18:53;;;;;;;14.55;1.67;;;8.00;99.90;;;;;;4234927;28;20097;-86
2022/10/11 06:20:57;;;;;;;8.73;2.25;;;7.80;99.90;;;;;;4234298;28;20039;-87
2022/10/11 06:22:58;;;;;;;13.05;1.55;;;7.80;99.90;;;;;;4234394;28;20047;-87
2022/10/11 06:24:59;;;;;;;11.95;1.95;;;7.80;99.90;;;;;;4231651;28;20101;-86
2022/10/11 06:26:59;;;;;;;3.00;1.17;;;7.90;99.90;;;;;;4233943;28;20432;-86
2022/10/11 06:29:00;;;;;;;11.50;1.23;;;8.10;99.90;;;;;;4248570;27;20059;-87
2022/10/11 06:31:03;;;;;;;12.75;1.48;;;7.90;99.90;;;;;;4216486;28;20584;-88
2022/10/11 06:33:06;;;;;;;12.13;1.80;;;7.90;99.90;;;;;;4233741;28;20042;-86
2022/10/11 06:35:07;;;;;;;7.80;1.38;;;8.00;99.90;;;;;;4216998;28;20562;-87
2022/10/11 06:37:08;;;;;;;10.40;1.50;;;8.00;99.90;;;;;;4234573;28;20035;-86
2022/10/11 06:39:09;;;;;;;7.38;1.20;;;8.00;99.90;;;;;;4234634;28;20390;-87
2022/10/11 06:41:17;;;;;;;9.88;1.65;;;8.60;99.90;;;;;;4233861;28;20050;-86
2022/10/11 06:43:20;;;;;;;7.57;1.88;;;6.80;99.90;;;;;;4236756;28;20528;-87
2022/10/11 06:45:20;;;;;;;11.82;1.73;;;8.20;99.90;;;;;;4233174;28;20432;-88
2022/10/11 06:47:22;;;;;;;7.40;1.38;;;8.70;99.90;;;;;;4234199;28;20043;-88
2022/10/11 06:49:23;;;;;;;11.60;1.52;;;8.20;99.90;;;;;;4234550;28;20044;-88
2022/10/11 06:51:24;;;;;;;14.60;1.42;;;8.20;99.90;;;;;;4233567;28;20516;-88
2022/10/11 06:53:26;;;;;;;10.50;1.50;;;8.30;99.90;;;;;;4233085;28;20135;-86
2022/10/11 06:55:27;;;;;;;8.02;1.40;;;8.30;99.90;;;;;;4234553;27;20142;-85
2022/10/11 06:57:28;;;;;;;6.50;1.50;;;8.40;99.90;;;;;;4232094;28;20044;-87
2022/10/11 06:59:29;;;;;;;10.45;1.55;;;8.30;99.90;;;;;;4233672;28;20051;-87
2022/10/11 07:01:31;;;;;;;9.52;1.80;;;8.40;99.90;;;;;;4232404;28;20413;-85
2022/10/11 07:03:34;;;;;;;10.80;1.58;;;8.40;99.90;;;;;;4231118;28;20044;-86
2022/10/11 07:05:34;;;;;;;12.07;1.48;;;8.50;99.90;;;;;;4213915;28;20105;-86
2022/10/11 07:07:35;;;;;;;15.05;2.85;;;8.50;99.90;;;;;;4196817;28;20131;-87
2022/10/11 07:09:36;;;;;;;9.10;2.03;;;8.60;99.90;;;;;;4231274;28;20181;-86
2022/10/11 07:11:38;;;;;;;10.65;1.60;;;8.60;99.90;;;;;;4214149;28;20040;-86
2022/10/11 07:13:40;;;;;;;7.32;1.95;;;8.70;99.90;;;;;;4217039;28;20058;-87
2022/10/11 07:15:42;;;;;;;9.25;1.40;;;8.70;99.90;;;;;;4214045;28;20470;-89
2022/10/11 07:17:43;;;;;;;10.27;1.63;;;8.70;99.90;;;;;;4215540;28;20090;-90
2022/10/11 07:19:44;;;;;;;8.85;1.48;;;8.90;99.90;;;;;;4230001;28;20485;-88
2022/10/11 07:21:45;;;;;;;8.60;2.47;;;8.80;99.90;;;;;;4212907;28;20044;-86
2022/10/11 07:23:45;;;;;;;11.20;1.85;;;8.90;99.90;;;;;;4226504;28;20058;-86
2022/10/11 07:25:46;;;;;;;10.65;2.30;;;8.90;99.90;;;;;;4224968;28;20552;-86
2022/10/11 07:27:47;;;;;;;9.77;2.45;;;9.30;99.90;;;;;;4196794;28;20052;-86
2022/10/11 07:29:48;;;;;;;11.23;2.47;;;9.00;99.90;;;;;;4217440;28;20032;-86
2022/10/11 07:31:49;;;;;;;11.00;1.42;;;9.10;99.90;;;;;;4229678;28;20051;-86
2022/10/11 07:33:50;;;;;;;8.68;1.55;;;9.20;99.90;;;;;;4230326;28;20123;-86
2022/10/11 07:35:56;;;;;;;8.93;1.55;;;9.20;99.90;;;;;;4230750;28;20084;-86
2022/10/11 07:37:57;;;;;;;6.25;2.38;;;9.30;99.90;;;;;;4216838;28;20091;-86
2022/10/11 07:39:58;;;;;;;9.15;1.58;;;9.30;99.90;;;;;;4235015;28;20489;-87
2022/10/11 07:41:59;;;;;;;9.20;1.73;;;9.30;99.90;;;;;;4231278;28;20036;-86
2022/10/11 07:44:02;;;;;;;11.82;2.17;;;9.40;99.90;;;;;;4218294;28;20055;-85
2022/10/11 07:46:03;;;;;;;10.15;1.63;;;9.50;99.90;;;;;;4217535;28;20114;-86
2022/10/11 07:48:04;;;;;;;9.13;1.40;;;9.60;99.90;;;;;;4218776;28;20134;-84
2022/10/11 07:50:06;;;;;;;8.60;1.60;;;9.70;99.90;;;;;;4219256;28;20550;-86
2022/10/11 07:52:06;;;;;;;7.50;1.35;;;9.80;99.90;;;;;;4218889;28;20048;-85
2022/10/11 07:54:07;;;;;;;7.35;1.75;;;9.80;99.90;;;;;;4218682;28;20062;-85
2022/10/11 07:56:11;;;;;;;7.60;2.38;;;9.90;99.90;;;;;;4218978;28;20069;-86
2022/10/11 07:58:12;;;;;;;11.38;2.28;;;10.00;99.90;;;;;;4218512;28;20064;-86
2022/10/11 08:00:13;;;;;;;15.05;2.53;;;10.20;99.90;;;;;;4217120;28;20071;-85
2022/10/11 08:02:14;;;;;;;11.65;2.25;;;10.40;99.90;;;;;;4216164;28;20055;-87
2022/10/11 08:04:15;;;;;;;9.65;1.52;;;10.40;99.90;;;;;;4215703;28;20044;-86
2022/10/11 08:06:20;;;;;;;7.75;1.27;;;10.60;99.90;;;;;;4217712;28;20460;-85
2022/10/11 08:08:20;;;;;;;9.65;2.10;;;11.00;99.90;;;;;;4216190;28;20087;-86
2022/10/11 08:10:21;;;;;;;11.63;1.52;;;11.80;99.90;;;;;;4216259;28;20052;-86
2022/10/11 08:12:22;;;;;;;11.35;1.60;;;12.60;99.90;;;;;;4182095;28;20167;-86
2022/10/11 08:14:23;;;;;;;13.73;2.03;;;13.10;99.90;;;;;;4217334;28;20366;-86
2022/10/11 08:16:24;;;;;;;9.43;1.65;;;13.60;99.60;;;;;;4199715;28;20044;-86
2022/10/11 08:18:25;;;;;;;8.55;1.75;;;14.40;99.10;;;;;;4218418;28;20036;-86
2022/10/11 08:20:26;;;;;;;7.00;1.92;;;15.00;98.40;;;;;;4234424;28;20042;-86
2022/10/11 08:22:27;;;;;;;6.47;1.45;;;;;;;;;;4234310;28;20134;-86
2022/10/11 08:24:28;;;;;;;6.63;1.35;;;15.60;97.20;;;;;;4236775;28;20122;-86
2022/10/11 08:26:29;;;;;;;10.07;1.80;;;16.20;96.20;;;;;;4228427;28;20044;-88
2022/10/11 08:28:31;;;;;;;10.07;1.92;;;16.70;95.50;;;;;;4210593;28;20141;-88
2022/10/11 08:30:32;;;;;;;7.72;2.65;;;16.90;94.90;;;;;;4234934;28;20051;-88
2022/10/11 08:32:33;;;;;;;9.60;1.77;;;17.30;94.70;;;;;;4223321;28;20056;-90
2022/10/11 08:34:34;;;;;;;8.88;2.00;;;17.50;94.10;;;;;;4217623;28;20081;-89
2022/10/11 08:36:36;;;;;;;12.95;2.22;;;17.80;94.20;;;;;;4217327;28;20052;-88
2022/10/11 08:38:38;;;;;;;10.27;2.50;;;17.90;93.40;;;;;;4217784;28;20040;-89
2022/10/11 08:40:58;;;;;;;9.93;2.17;;;18.40;93.30;;;;;;4218204;28;20056;-89
2022/10/11 08:43:05;;;;;;;11.00;1.52;;;18.40;93.10;;;;;;4217787;28;20052;-89
2022/10/11 08:45:12;;;;;;;10.85;2.08;;;18.80;92.80;;;;;;4231180;28;20050;-89
2022/10/11 08:47:27;;;;;;;10.13;1.73;;;18.90;92.10;;;;;;4235459;27;20063;-90
2022/10/11 08:49:32;;;;;;;5.70;1.73;;;18.30;91.40;;;;;;4235253;28;20057;-89
2022/10/11 08:51:49;;;;;;;9.15;2.22;;;19.30;91.50;;;;;;4233974;28;20098;-89
2022/10/11 08:54:01;;;;;;;7.68;3.35;;;19.50;86.20;;;;;;4251923;27;20046;-90
2022/10/11 08:56:03;;;;;;;13.50;1.92;;;19.90;90.30;;;;;;4237179;28;20035;-89
2022/10/11 08:58:04;;;;;;;7.32;1.63;;;20.00;90.30;;;;;;4235480;28;20043;-88
2022/10/11 09:00:13;;;;;;;9.15;1.58;;;20.10;89.10;;;;;;4234208;28;20111;-89
2022/10/11 09:02:27;;;;;;;10.13;1.58;;;20.30;89.00;;;;;;4234019;28;20408;-88
2022/10/11 09:04:28;;;;;;;9.30;1.33;;;20.20;87.60;;;;;;4235097;28;20489;-89
2022/10/11 09:06:34;;;;;;;10.55;1.77;;;19.90;88.30;;;;;;4235788;28;20073;-89
2022/10/11 09:08:54;;;;;;;7.85;1.85;;;20.50;86.80;;;;;;4233391;28;20444;-87
2022/10/11 09:11:07;;;;;;;10.95;1.25;;;20.60;84.50;;;;;;4233722;28;20513;-88
2022/10/11 09:13:51;;;;;;;8.02;1.73;;;21.00;85.20;;;;;;4234093;28;20461;-88
2022/10/11 09:16:02;;;;;;;7.60;1.40;;;21.30;83.80;;;;;;4234221;28;20038;-89
2022/10/11 09:18:29;;;;;;;11.35;1.92;;;21.70;80.90;;;;;;4235093;28;20044;-88
2022/10/11 09:20:36;;;;;;;11.90;2.20;;;21.60;82.90;;;;;;4233031;28;20050;-88
2022/10/11 09:23:21;;;;;;;3.72;1.50;;;21.80;83.20;;;;;;4219793;28;20044;-88
2022/10/11 09:25:32;;;;;;;5.18;1.00;;;22.10;80.70;;;;;;4221005;28;20126;-87
2022/10/11 09:27:43;;;;;;;6.45;1.40;;;22.30;79.50;;;;;;4233335;28;20451;-90
2022/10/11 09:30:15;;;;;;;3.95;1.60;;;22.10;80.70;;;;;;4235647;28;20067;-89
2022/10/11 09:32:20;;;;;;;10.07;2.00;;;22.10;75.90;;;;;;4233754;28;20130;-87
2022/10/11 09:34:25;;;;;;;4.60;1.10;;;22.20;81.30;;;;;;4233316;28;20048;-87
2022/10/11 09:36:39;;;;;;;8.50;1.70;;;22.10;81.10;;;;;;4231218;28;20047;-88
2022/10/11 09:38:52;;;;;;;11.15;2.05;;;21.80;81.00;;;;;;4233582;28;20048;-88
2022/10/11 09:41:08;;;;;;;5.57;1.13;;;21.50;80.30;;;;;;4214807;28;20063;-87
2022/10/11 09:43:09;;;;;;;7.10;1.42;;;21.60;82.40;;;;;;4215414;28;20430;-87
2022/10/11 09:45:19;;;;;;;10.55;1.35;;;21.20;82.50;;;;;;4233446;28;20039;-88
2022/10/11 09:47:23;;;;;;;9.90;1.75;;;21.10;77.50;;;;;;4233393;28;20055;-87
2022/10/11 09:49:30;;;;;;;5.65;1.25;;;20.90;82.20;;;;;;4233646;28;20092;-88
2022/10/11 09:51:32;;;;;;;10.63;1.60;;;20.60;82.40;;;;;;4232294;28;20079;-87
2022/10/11 09:53:58;;;;;;;6.53;1.45;;;20.60;83.30;;;;;;4233717;28;20039;-89
2022/10/11 09:56:03;;;;;;;6.22;1.15;;;20.60;82.90;;;;;;4212967;28;20048;-88
2022/10/11 09:58:05;;;;;;;7.45;1.42;;;20.80;84.20;;;;;;4214696;28;20047;-87
2022/10/11 10:00:19;;;;;;;11.27;1.75;;;21.00;84.40;;;;;;4216359;28;20040;-89
2022/10/11 10:02:22;;;;;;;7.68;1.17;;;20.90;84.40;;;;;;4214881;28;20413;-87
2022/10/11 10:04:23;;;;;;;9.95;1.02;;;20.90;84.20;;;;;;4216297;28;20040;-86
2022/10/11 10:06:25;;;;;;;7.60;1.65;;;20.60;83.80;;;;;;4215771;28;20073;-87
2022/10/11 10:08:26;;;;;;;6.40;1.50;;;20.00;83.30;;;;;;4216861;28;20048;-87
2022/10/11 10:10:33;;;;;;;7.95;1.00;;;20.20;83.00;;;;;;4215123;28;20059;-87
2022/10/11 10:12:34;;;;;;;6.90;1.85;;;19.70;82.80;;;;;;4215388;28;20071;-87
2022/10/11 10:14:35;;;;;;;10.43;1.70;;;19.40;83.20;;;;;;4214904;28;20040;-87
2022/10/11 10:16:36;;;;;;;8.63;1.33;;;19.50;83.40;;;;;;4216205;28;20036;-88
2022/10/11 10:18:42;;;;;;;7.47;1.08;;;19.30;82.20;;;;;;4220415;28;20046;-87
2022/10/11 10:20:51;;;;;;;11.63;1.92;;;19.20;82.60;;;;;;4231230;28;20062;-88
2022/10/11 10:22:52;;;;;;;6.90;1.13;;;19.10;82.20;;;;;;4232709;28;20090;-87
2022/10/11 10:24:54;;;;;;;10.85;1.75;;;19.20;82.40;;;;;;4230832;28;20065;-86
2022/10/11 10:27:07;;;;;;;7.65;1.23;;;19.40;82.70;;;;;;4214319;28;20043;-87
2022/10/11 10:29:07;;;;;;;10.88;1.63;;;19.30;81.40;;;;;;4231710;28;20048;-87
2022/10/11 10:31:23;;;;;;;4.22;1.40;;;19.00;82.00;;;;;;4231362;28;20094;-88
2022/10/11 10:33:34;;;;;;;8.95;1.67;;;18.90;81.50;;;;;;4215082;28;20131;-88
2022/10/11 10:35:44;;;;;;;7.00;1.80;;;19.10;83.00;;;;;;4231547;28;20051;-88
2022/10/11 10:37:51;;;;;;;10.27;1.35;;;19.40;82.60;;;;;;4231317;28;20059;-88
2022/10/11 10:40:04;;;;;;;7.78;0.85;;;19.60;81.00;;;;;;4231331;28;20043;-87
2022/10/11 10:42:18;;;;;;;11.13;1.50;;;19.90;80.60;;;;;;4214773;28;20105;-86
2022/10/11 10:44:19;;;;;;;7.00;1.20;;;19.80;79.20;;;;;;4233083;28;20548;-87
2022/10/11 10:47:14;;;;;;;5.47;1.65;;;19.90;79.90;;;;;;4232474;28;20052;-87
2022/10/11 10:49:35;;;;;;;8.82;1.52;;;20.10;75.60;;;;;;4206326;28;20052;-87
2022/10/11 10:51:43;;;;;;;9.07;1.40;;;20.10;77.70;;;;;;4232998;28;20046;-87
2022/10/11 10:53:52;;;;;;;8.13;1.60;;;19.90;78.50;;;;;;4233714;28;20043;-87